Tracy, Missouri
Current Conditions -  °F | °C
As of 6:53 PM on Monday 24 Nov 2014 (Local Time) from KMCI Reporting Station
Clear Clear  
Wind Chill: -4°   Ceiling: Unl
Heat Index:   Visibility: 10mi
Dew Point: -6°   Wind: 9mph
Humidity: 64%   Direction: 290°WNW
Pressure: 29.97"   Gusts: NA
Location:  39.3588°N, 94.8136°W
Report Text: KMCI 250053Z 29008KT 10SM CLR 01/M06 A2997 RMK AO2 SLP157 T00061056
Loading
Personal Weather Stations






























Interactive Weather Map New forecast layout! Learn more

10-Day Weather Forecast

Advertisements
Track Severe Weather on mobile